createdAt,value
2023-03-01T00:00:47.891Z,101674.94
2023-03-01T00:03:23.967Z,101671.59
2023-03-01T00:05:52.326Z,101675.06
2023-03-01T00:08:20.707Z,101675.57
2023-03-01T00:11:11.716Z,101677.11
2023-03-01T00:13:42.144Z,101680.08
2023-03-01T00:16:14.451Z,101681.19
2023-03-01T00:18:42.881Z,101680.11
2023-03-01T00:21:11.864Z,101677.39
2023-03-01T00:23:40.676Z,101676.77
2023-03-01T00:26:12.019Z,101672.64
2023-03-01T00:28:41.727Z,101669.41
2023-03-01T00:31:14.499Z,101667.45
2023-03-01T00:33:44.433Z,101665.10
2023-03-01T00:36:16.598Z,101661.09
2023-03-01T00:38:47.355Z,101659.89
2023-03-01T00:41:17.649Z,101656.47
2023-03-01T00:43:46.567Z,101656.38
2023-03-01T00:46:18.559Z,101654.55
2023-03-01T00:48:47.616Z,101649.85
2023-03-01T00:51:22.361Z,101643.11
2023-03-01T00:53:55.772Z,101636.23
2023-03-01T00:56:24.921Z,101634.50
2023-03-01T00:58:53.929Z,101635.13
2023-03-01T01:01:24.747Z,101634.69
2023-03-01T01:04:07.874Z,101639.59
2023-03-01T01:06:45.471Z,101642.14
2023-03-01T01:09:18.628Z,101643.76
2023-03-01T01:11:52.224Z,101637.69
2023-03-01T01:14:21.064Z,101640.40
2023-03-01T01:16:50.663Z,101642.53
2023-03-01T01:19:19.344Z,101641.52
2023-03-01T01:21:49.270Z,101636.42
2023-03-01T01:24:18.564Z,101627.70
2023-03-01T01:26:47.350Z,101623.45
2023-03-01T01:29:16.045Z,101615.34
2023-03-01T01:31:45.065Z,101616.87
2023-03-01T01:34:22.450Z,101620.27
2023-03-01T01:36:55.103Z,101621.38
2023-03-01T01:39:23.787Z,101619.64
2023-03-01T01:41:51.949Z,101616.57
2023-03-01T01:44:21.862Z,101612.16
2023-03-01T01:47:25.880Z,101607.13
2023-03-01T01:49:57.252Z,101605.36
2023-03-01T01:52:32.196Z,101602.86
2023-03-01T01:55:06.591Z,101597.37
2023-03-01T01:57:37.826Z,101589.61
2023-03-01T02:00:11.335Z,101585.03
2023-03-01T02:02:44.785Z,101585.35
2023-03-01T02:05:27.243Z,101584.77
2023-03-01T02:07:57.258Z,101582.31
2023-03-01T02:10:26.566Z,101583.60
2023-03-01T02:12:55.754Z,101585.13
2023-03-01T02:15:25.318Z,101589.83
2023-03-01T02:17:55.495Z,101588.36
2023-03-01T02:20:29.593Z,101586.64
2023-03-01T02:22:59.611Z,101582.51
2023-03-01T02:26:04.542Z,101578.71
2023-03-01T02:28:36.396Z,101584.16
2023-03-01T02:31:26.150Z,101575.09
2023-03-01T02:33:56.075Z,101576.02
2023-03-01T02:36:32.312Z,101584.88
2023-03-01T02:39:03.418Z,101588.50
2023-03-01T02:41:36.911Z,101588.53
2023-03-01T02:44:06.659Z,101585.73
2023-03-01T02:46:35.304Z,101587.66
2023-03-01T02:49:18.853Z,101592.02
2023-03-01T02:52:03.816Z,101595.58
2023-03-01T02:54:32.198Z,101602.80
2023-03-01T02:57:02.571Z,101603.88
2023-03-01T02:59:40.340Z,101601.83
2023-03-01T03:02:39.301Z,101604.26
2023-03-01T03:05:18.777Z,101605.27
2023-03-01T03:07:49.572Z,101603.55
2023-03-01T03:10:22.679Z,101598.55
2023-03-01T03:12:56.623Z,101599.39
2023-03-01T03:15:25.893Z,101598.20
2023-03-01T03:17:54.981Z,101595.66
2023-03-01T03:20:26.944Z,101598.61
2023-03-01T03:22:59.388Z,101592.34
2023-03-01T03:25:29.852Z,101592.13
2023-03-01T03:27:59.264Z,101590.51
2023-03-01T03:30:32.546Z,101583.92
2023-03-01T03:33:01.233Z,101584.83
2023-03-01T03:35:32.387Z,101583.87
2023-03-01T03:38:04.952Z,101581.98
2023-03-01T03:40:41.720Z,101577.03
2023-03-01T03:43:21.787Z,101572.70
2023-03-01T03:45:51.874Z,101572.36
2023-03-01T03:48:20.891Z,101569.45
2023-03-01T03:50:51.717Z,101564.08
2023-03-01T03:53:21.133Z,101566.17
2023-03-01T03:55:52.771Z,101566.09
2023-03-01T03:58:23.025Z,101564.01
2023-03-01T04:00:54.642Z,101562.92
2023-03-01T04:03:24.472Z,101558.45
2023-03-01T04:05:53.916Z,101554.93
2023-03-01T04:08:23.786Z,101556.30
2023-03-01T04:10:54.996Z,101552.40
2023-03-01T04:13:26.382Z,101544.57
2023-03-01T04:15:56.093Z,101549.95
2023-03-01T04:18:26.437Z,101551.58
2023-03-01T04:20:56.633Z,101549.92
2023-03-01T04:23:25.103Z,101550.39
2023-03-01T04:25:56.259Z,101549.71
2023-03-01T04:28:35.501Z,101550.92
2023-03-01T04:31:16.759Z,101550.48
2023-03-01T04:33:46.418Z,101547.17
2023-03-01T04:36:16.668Z,101547.17
2023-03-01T04:38:48.881Z,101546.77
2023-03-01T04:41:20.309Z,101548.98
2023-03-01T04:43:49.662Z,101552.85
2023-03-01T04:46:21.956Z,101544.44
2023-03-01T04:48:52.216Z,101543.20
2023-03-01T04:51:20.588Z,101543.42
2023-03-01T04:53:49.096Z,101545.41
2023-03-01T04:56:19.915Z,101549.91
2023-03-01T04:58:48.428Z,101554.08
2023-03-01T05:01:22.094Z,101553.31
2023-03-01T05:03:52.975Z,101555.48
2023-03-01T05:06:21.609Z,101551.98
2023-03-01T05:08:52.336Z,101556.03
2023-03-01T05:11:21.042Z,101560.57
2023-03-01T05:13:51.171Z,101561.06
2023-03-01T05:16:21.278Z,101563.96
2023-03-01T05:18:52.423Z,101562.94
2023-03-01T05:21:20.814Z,101560.83
2023-03-01T05:23:49.392Z,101559.63
2023-03-01T05:26:28.359Z,101557.36
2023-03-01T05:29:07.644Z,101552.87
2023-03-01T05:31:35.931Z,101549.39
2023-03-01T05:34:04.342Z,101548.41
2023-03-01T05:36:32.887Z,101555.60
2023-03-01T05:39:01.887Z,101560.77
2023-03-01T05:41:30.567Z,101563.57
2023-03-01T05:43:59.047Z,101562.48
2023-03-01T05:46:27.186Z,101562.33
2023-03-01T05:48:56.523Z,101556.06
2023-03-01T05:51:25.133Z,101560.63
2023-03-01T05:53:53.595Z,101559.78
2023-03-01T05:56:23.498Z,101559.03
2023-03-01T05:58:52.404Z,101561.59
2023-03-01T06:01:22.633Z,101568.27
2023-03-01T06:03:50.998Z,101573.36
2023-03-01T06:06:20.258Z,101572.23
2023-03-01T06:08:49.193Z,101575.17
2023-03-01T06:11:20.448Z,101574.10
2023-03-01T06:13:48.812Z,101571.39
2023-03-01T06:16:17.559Z,101569.73
2023-03-01T06:18:46.214Z,101568.77
2023-03-01T06:21:14.839Z,101567.55
2023-03-01T06:23:43.146Z,101567.56
2023-03-01T06:26:11.430Z,101567.17
2023-03-01T06:28:39.721Z,101568.75
2023-03-01T06:31:10.783Z,101573.65
2023-03-01T06:33:39.236Z,101565.73
2023-03-01T06:36:08.869Z,101562.30
2023-03-01T06:38:37.322Z,101552.73
2023-03-01T06:41:05.795Z,101561.63
2023-03-01T06:43:35.411Z,101560.14
2023-03-01T06:46:07.096Z,101556.89
2023-03-01T06:48:36.112Z,101548.14
2023-03-01T06:51:04.844Z,101551.02
2023-03-01T06:53:33.182Z,101553.64
2023-03-01T06:56:01.622Z,101554.31
2023-03-01T06:58:30.202Z,101553.05
2023-03-01T07:00:58.481Z,101549.14
2023-03-01T07:03:26.881Z,101540.41
2023-03-01T07:05:55.354Z,101536.59
2023-03-01T07:08:23.926Z,101538.29
2023-03-01T07:11:03.524Z,101541.77
2023-03-01T07:13:31.762Z,101544.44
2023-03-01T07:16:00.154Z,101544.94
2023-03-01T07:18:28.705Z,101546.94
2023-03-01T07:20:57.011Z,101549.48
2023-03-01T07:23:25.567Z,101552.44
2023-03-01T07:25:55.187Z,101548.22
2023-03-01T07:28:26.525Z,101548.73
2023-03-01T07:30:55.114Z,101553.14
2023-03-01T07:33:23.659Z,101563.07
2023-03-01T07:36:04.577Z,101558.73
2023-03-01T07:38:33.544Z,101563.48
2023-03-01T07:41:04.386Z,101559.98
2023-03-01T07:43:33.593Z,101556.18
2023-03-01T07:46:04.200Z,101554.68
2023-03-01T07:48:34.225Z,101555.40
2023-03-01T07:51:04.665Z,101552.28
2023-03-01T07:53:35.280Z,101548.46
2023-03-01T07:56:09.842Z,101538.77
2023-03-01T07:58:39.996Z,101534.14
2023-03-01T08:01:11.442Z,101532.77
2023-03-01T08:03:41.035Z,101526.58
2023-03-01T08:06:12.637Z,101520.92
2023-03-01T08:08:41.672Z,101516.59
2023-03-01T08:11:13.121Z,101514.63
2023-03-01T08:13:41.793Z,101509.54
2023-03-01T08:16:15.744Z,101508.18
2023-03-01T08:18:44.986Z,101501.90
2023-03-01T08:21:16.951Z,101496.04
2023-03-01T08:23:46.463Z,101495.48
2023-03-01T08:26:19.848Z,101495.23
2023-03-01T08:28:50.182Z,101495.36
2023-03-01T08:31:25.799Z,101496.00
2023-03-01T08:33:57.996Z,101501.27
2023-03-01T08:36:32.920Z,101496.90
2023-03-01T08:39:02.225Z,101502.27
2023-03-01T08:41:30.898Z,101502.09
2023-03-01T08:44:02.355Z,101505.79
2023-03-01T08:46:37.289Z,101510.30
2023-03-01T08:49:08.119Z,101508.52
2023-03-01T08:51:40.116Z,101506.10
2023-03-01T08:54:13.753Z,101503.30
2023-03-01T08:56:42.994Z,101508.85
2023-03-01T08:59:16.455Z,101509.98
2023-03-01T09:01:45.186Z,101510.02
2023-03-01T09:04:14.278Z,101504.58
2023-03-01T09:06:43.370Z,101509.20
2023-03-01T09:09:17.054Z,101512.80
2023-03-01T09:11:47.534Z,101519.91
2023-03-01T09:14:16.245Z,101519.89
2023-03-01T09:16:44.861Z,101518.63
2023-03-01T09:19:14.470Z,101516.30
2023-03-01T09:21:54.226Z,101517.23
2023-03-01T09:24:24.966Z,101514.89
2023-03-01T09:26:57.643Z,101507.84
2023-03-01T09:29:27.249Z,101503.19
2023-03-01T09:31:56.574Z,101506.52
2023-03-01T09:34:25.166Z,101500.33
2023-03-01T09:36:53.577Z,101500.30
2023-03-01T09:39:21.998Z,101499.19
2023-03-01T09:41:55.598Z,101494.90
2023-03-01T09:44:32.982Z,101495.90
2023-03-01T09:47:03.248Z,101494.31
2023-03-01T09:49:35.294Z,101497.48
2023-03-01T09:52:27.915Z,101496.66
2023-03-01T09:54:59.485Z,101495.84
2023-03-01T09:57:31.667Z,101497.20
2023-03-01T10:00:22.452Z,101493.80
2023-03-01T10:03:00.968Z,101495.69
2023-03-01T10:05:38.467Z,101494.87
2023-03-01T10:08:09.909Z,101492.84
2023-03-01T10:10:41.052Z,101490.27
2023-03-01T10:13:23.148Z,101493.09
2023-03-01T10:15:58.765Z,101489.23
2023-03-01T10:18:29.925Z,101485.25
2023-03-01T10:21:04.163Z,101483.60
2023-03-01T10:23:33.573Z,101480.59
2023-03-01T10:26:11.321Z,101478.00
2023-03-01T10:28:41.175Z,101474.86
2023-03-01T10:31:22.404Z,101471.36
2023-03-01T10:33:56.674Z,101463.13
2023-03-01T10:36:26.384Z,101460.73
2023-03-01T10:38:59.304Z,101458.59
2023-03-01T10:41:28.722Z,101453.68
2023-03-01T10:44:00.686Z,101453.40
2023-03-01T10:46:34.402Z,101451.77
2023-03-01T10:49:19.600Z,101448.35
2023-03-01T10:51:52.325Z,101448.36
2023-03-01T10:54:26.712Z,101450.00
2023-03-01T10:56:57.940Z,101449.25
2023-03-01T10:59:40.059Z,101440.48
2023-03-01T11:02:29.484Z,101436.74
2023-03-01T11:05:16.758Z,101428.20
2023-03-01T11:07:54.537Z,101427.92
2023-03-01T11:10:29.207Z,101423.29
2023-03-01T11:13:08.917Z,101421.85
2023-03-01T11:18:33.923Z,101420.12
2023-03-01T11:21:10.016Z,101422.17
2023-03-01T11:23:40.853Z,101423.35
2023-03-01T11:26:12.377Z,101423.96
2023-03-01T11:28:44.044Z,101421.24
2023-03-01T11:31:14.532Z,101417.41
2023-03-01T11:33:49.641Z,101419.59
2023-03-01T11:36:37.323Z,101414.55
2023-03-01T11:39:27.635Z,101412.02
2023-03-01T11:42:19.384Z,101411.88
2023-03-01T11:44:53.686Z,101409.18
2023-03-01T11:47:41.032Z,101409.34
2023-03-01T11:50:09.567Z,101411.80
2023-03-01T11:52:49.830Z,101412.50
2023-03-01T11:55:33.164Z,101405.02
2023-03-01T11:58:24.700Z,101391.58
2023-03-01T12:01:17.733Z,101392.70
2023-03-01T12:04:13.679Z,101394.42
2023-03-01T12:06:47.781Z,101389.49
2023-03-01T12:09:28.863Z,101386.92
2023-03-01T12:12:40.109Z,101382.75
2023-03-01T12:15:29.298Z,101377.48
2023-03-01T12:18:22.574Z,101378.27
2023-03-01T12:21:00.982Z,101376.46
2023-03-01T12:23:56.096Z,101378.02
2023-03-01T12:26:41.698Z,101376.41
2023-03-01T12:29:35.336Z,101375.11
2023-03-01T12:32:20.266Z,101375.25
2023-03-01T12:35:03.734Z,101376.55
2023-03-01T12:38:17.286Z,101370.89
2023-03-01T12:41:07.692Z,101370.34
2023-03-01T12:44:28.289Z,101366.21
2023-03-01T12:47:18.388Z,101353.67
2023-03-01T12:49:55.656Z,101346.20
2023-03-01T12:52:30.803Z,101339.67
2023-03-01T12:55:02.251Z,101337.28
2023-03-01T12:57:48.099Z,101335.02
2023-03-01T13:00:25.543Z,101329.07
2023-03-01T13:03:13.260Z,101322.20
2023-03-01T13:06:20.162Z,101322.64
2023-03-01T13:11:35.926Z,101321.60
2023-03-01T13:14:24.138Z,101320.06
2023-03-01T13:16:54.469Z,101317.96
2023-03-01T13:19:30.284Z,101317.73
2023-03-01T13:21:58.739Z,101314.77
2023-03-01T13:24:36.530Z,101313.52
2023-03-01T13:27:08.122Z,101311.21
2023-03-01T13:29:53.259Z,101314.42
2023-03-01T13:32:43.030Z,101311.79
2023-03-01T13:35:16.146Z,101311.52
2023-03-01T13:37:45.530Z,101313.59
2023-03-01T13:40:20.385Z,101313.16
2023-03-01T13:43:04.150Z,101313.92
2023-03-01T13:45:42.127Z,101308.86
2023-03-01T13:48:16.536Z,101303.88
2023-03-01T13:50:50.540Z,101299.60
2023-03-01T13:53:21.488Z,101294.80
2023-03-01T13:55:58.728Z,101294.05
2023-03-01T13:58:34.245Z,101292.20
2023-03-01T14:01:09.760Z,101288.73
2023-03-01T14:03:43.336Z,101290.51
2023-03-01T14:06:30.170Z,101273.77
2023-03-01T14:09:16.584Z,101275.73
2023-03-01T14:12:15.889Z,101278.70
2023-03-01T14:14:50.704Z,101275.80
2023-03-01T14:17:43.767Z,101274.16
2023-03-01T14:20:25.878Z,101267.45
2023-03-01T14:22:58.389Z,101258.30
2023-03-01T14:25:33.893Z,101262.69
2023-03-01T14:28:17.826Z,101258.28
2023-03-01T14:30:51.790Z,101255.56
2023-03-01T14:33:30.553Z,101252.12
2023-03-01T14:36:06.453Z,101250.45
2023-03-01T14:38:46.573Z,101247.23
2023-03-01T14:41:20.286Z,101239.49
2023-03-01T14:44:08.139Z,101233.92
2023-03-01T14:46:39.721Z,101234.88
2023-03-01T14:49:12.555Z,101232.63
2023-03-01T14:51:44.325Z,101225.96
2023-03-01T14:54:28.255Z,101222.27
2023-03-01T14:57:01.034Z,101218.11
2023-03-01T14:59:29.924Z,101216.30
2023-03-01T15:02:00.850Z,101219.46
2023-03-01T15:04:31.024Z,101219.14
2023-03-01T15:07:06.349Z,101224.34
2023-03-01T15:09:38.324Z,101224.88
2023-03-01T15:12:28.499Z,101219.81
2023-03-01T15:15:04.822Z,101228.53
2023-03-01T15:17:39.694Z,101231.05
2023-03-01T15:20:18.357Z,101225.50
2023-03-01T15:22:50.005Z,101231.10
2023-03-01T15:25:21.290Z,101227.82
2023-03-01T15:27:52.293Z,101226.80
2023-03-01T15:30:26.240Z,101225.71
2023-03-01T15:33:28.099Z,101226.70
2023-03-01T15:35:59.270Z,101222.09
2023-03-01T15:38:33.216Z,101222.60
2023-03-01T15:41:05.568Z,101219.38
2023-03-01T15:43:46.110Z,101215.38
2023-03-01T15:46:30.662Z,101219.65
2023-03-01T15:49:06.177Z,101219.81
2023-03-01T15:51:37.674Z,101218.58
2023-03-01T15:54:19.931Z,101219.48
2023-03-01T15:56:48.748Z,101224.20
2023-03-01T15:59:18.048Z,101224.02
2023-03-01T16:01:47.154Z,101224.42
2023-03-01T16:04:22.050Z,101221.55
2023-03-01T16:06:58.346Z,101223.27
2023-03-01T16:09:28.042Z,101227.56
2023-03-01T16:11:57.050Z,101227.33
2023-03-01T16:14:25.944Z,101223.84
2023-03-01T16:16:55.567Z,101223.46
2023-03-01T16:19:25.082Z,101224.05
2023-03-01T16:21:54.272Z,101223.59
2023-03-01T16:24:23.247Z,101224.66
2023-03-01T16:26:52.031Z,101227.14
2023-03-01T16:29:21.029Z,101232.19
2023-03-01T16:31:50.519Z,101233.98
2023-03-01T16:34:23.128Z,101235.94
2023-03-01T16:36:53.026Z,101236.45
2023-03-01T16:39:21.540Z,101238.21
2023-03-01T16:41:50.391Z,101242.30
2023-03-01T16:44:19.705Z,101242.36
2023-03-01T16:46:48.706Z,101241.59
2023-03-01T16:49:17.377Z,101247.48
2023-03-01T16:51:46.775Z,101246.35
2023-03-01T16:54:16.083Z,101249.06
2023-03-01T16:56:45.292Z,101253.02
2023-03-01T16:59:14.462Z,101255.38
2023-03-01T17:01:43.182Z,101259.98
2023-03-01T17:04:13.686Z,101264.41
2023-03-01T17:06:42.807Z,101268.56
2023-03-01T17:09:13.054Z,101267.46
2023-03-01T17:11:41.575Z,101272.52
2023-03-01T17:14:10.784Z,101273.11
2023-03-01T17:16:39.615Z,101273.91
2023-03-01T17:19:08.673Z,101273.70
2023-03-01T17:21:38.081Z,101272.16
2023-03-01T17:24:07.392Z,101274.58
2023-03-01T17:26:37.603Z,101274.48
2023-03-01T17:29:07.103Z,101276.39
2023-03-01T17:31:35.956Z,101276.77
2023-03-01T17:34:04.368Z,101272.77
2023-03-01T17:36:34.889Z,101270.63
2023-03-01T17:39:03.576Z,101271.11
2023-03-01T17:41:32.693Z,101273.80
2023-03-01T17:44:01.993Z,101271.73
2023-03-01T17:46:30.986Z,101272.23
2023-03-01T17:49:00.251Z,101274.94
2023-03-01T17:51:29.719Z,101272.94
2023-03-01T17:53:59.598Z,101273.57
2023-03-01T17:56:28.800Z,101271.85
2023-03-01T17:58:57.887Z,101269.45
2023-03-01T18:01:28.156Z,101268.02
2023-03-01T18:03:57.818Z,101268.13
2023-03-01T18:06:29.389Z,101270.57
2023-03-01T18:08:58.596Z,101273.75
2023-03-01T18:11:27.977Z,101276.77
2023-03-01T18:13:56.864Z,101279.72
2023-03-01T18:16:26.547Z,101285.16
2023-03-01T18:18:58.661Z,101281.54
2023-03-01T18:21:28.945Z,101280.02
2023-03-01T18:23:59.890Z,101274.27
2023-03-01T18:26:30.133Z,101271.94
2023-03-01T18:29:01.534Z,101266.19
2023-03-01T18:31:33.950Z,101264.80
2023-03-01T18:34:04.145Z,101260.45
2023-03-01T18:36:35.825Z,101262.14
2023-03-01T18:39:07.374Z,101259.98
2023-03-01T18:41:37.602Z,101261.91
2023-03-01T18:44:08.595Z,101264.27
2023-03-01T18:46:40.393Z,101264.66
2023-03-01T18:49:11.528Z,101262.55
2023-03-01T18:51:41.744Z,101257.15
2023-03-01T18:54:13.165Z,101252.98
2023-03-01T18:56:42.855Z,101250.35
2023-03-01T18:59:13.000Z,101245.39
2023-03-01T19:01:43.086Z,101244.72
2023-03-01T19:04:14.152Z,101236.88
2023-03-01T19:06:43.710Z,101235.55
2023-03-01T19:09:14.728Z,101236.77
2023-03-01T19:11:45.187Z,101239.91
2023-03-01T19:14:19.744Z,101241.20
2023-03-01T19:16:49.661Z,101247.81
2023-03-01T19:19:19.668Z,101246.95
2023-03-01T19:21:59.406Z,101249.14
2023-03-01T19:24:35.961Z,101250.98
2023-03-01T19:27:06.506Z,101249.08
2023-03-01T19:29:36.527Z,101249.73
2023-03-01T19:32:06.763Z,101244.27
2023-03-01T19:34:37.816Z,101243.59
2023-03-01T19:37:10.235Z,101240.21
2023-03-01T19:39:39.534Z,101241.11
2023-03-01T19:42:10.913Z,101238.73
2023-03-01T19:44:42.530Z,101243.73
2023-03-01T19:47:14.070Z,101240.19
2023-03-01T19:49:46.506Z,101238.90
2023-03-01T19:52:15.700Z,101240.47
2023-03-01T19:54:44.829Z,101235.83
2023-03-01T19:57:15.642Z,101235.60
2023-03-01T19:59:45.269Z,101238.73
2023-03-01T20:02:14.483Z,101241.76
2023-03-01T20:04:45.836Z,101244.41
2023-03-01T20:07:15.238Z,101243.80
2023-03-01T20:09:46.431Z,101252.43
2023-03-01T20:12:15.538Z,101252.13
2023-03-01T20:14:44.930Z,101254.57
2023-03-01T20:17:16.163Z,101257.06
2023-03-01T20:19:45.955Z,101260.48
2023-03-01T20:22:17.636Z,101260.16
2023-03-01T20:24:46.529Z,101257.68
2023-03-01T20:27:15.348Z,101257.73
2023-03-01T20:29:46.341Z,101255.12
2023-03-01T20:32:15.313Z,101254.44
2023-03-01T20:34:44.144Z,101247.31
2023-03-01T20:37:13.857Z,101248.64
2023-03-01T20:39:42.765Z,101247.90
2023-03-01T20:42:12.483Z,101247.11
2023-03-01T20:44:44.746Z,101247.54
2023-03-01T20:47:14.490Z,101247.48
2023-03-01T20:49:43.779Z,101244.09
2023-03-01T20:52:13.108Z,101243.09
2023-03-01T20:54:42.272Z,101239.63
2023-03-01T20:57:12.167Z,101235.80
2023-03-01T20:59:41.576Z,101236.81
2023-03-01T21:02:11.766Z,101235.73
2023-03-01T21:04:40.524Z,101238.61
2023-03-01T21:07:09.797Z,101235.38
2023-03-01T21:09:39.912Z,101230.27
2023-03-01T21:12:10.541Z,101227.69
2023-03-01T21:14:42.800Z,101226.13
2023-03-01T21:17:14.281Z,101226.39
2023-03-01T21:19:44.459Z,101231.04
2023-03-01T21:22:14.730Z,101227.04
2023-03-01T21:24:43.381Z,101226.10
2023-03-01T21:27:12.373Z,101222.76
2023-03-01T21:29:43.856Z,101223.59
2023-03-01T21:32:14.478Z,101219.45
2023-03-01T21:34:46.030Z,101225.37
2023-03-01T21:37:14.675Z,101223.11
2023-03-01T21:39:43.595Z,101226.27
2023-03-01T21:42:13.105Z,101223.33
2023-03-01T21:44:42.559Z,101222.42
2023-03-01T21:47:11.531Z,101222.90
2023-03-01T21:49:40.227Z,101223.95
2023-03-01T21:52:09.584Z,101221.79
2023-03-01T21:54:38.978Z,101223.56
2023-03-01T21:57:07.694Z,101221.95
2023-03-01T21:59:36.867Z,101220.64
2023-03-01T22:02:05.343Z,101218.31
2023-03-01T22:04:33.618Z,101215.30
2023-03-01T22:07:02.213Z,101213.20
2023-03-01T22:09:32.319Z,101215.55
2023-03-01T22:12:03.720Z,101211.33
2023-03-01T22:14:32.874Z,101214.17
2023-03-01T22:17:01.338Z,101218.52
2023-03-01T22:19:31.474Z,101218.89
2023-03-01T22:21:59.854Z,101216.73
2023-03-01T22:24:29.059Z,101222.06
2023-03-01T22:26:57.414Z,101219.79
2023-03-01T22:29:29.226Z,101222.40
2023-03-01T22:31:58.390Z,101224.30
2023-03-01T22:34:27.297Z,101224.00
2023-03-01T22:36:56.627Z,101223.02
2023-03-01T22:39:25.373Z,101222.72
2023-03-01T22:41:54.365Z,101219.52
2023-03-01T22:44:23.996Z,101218.02
2023-03-01T22:46:53.485Z,101221.14
2023-03-01T22:49:22.328Z,101218.50
2023-03-01T22:51:51.664Z,101215.61
2023-03-01T22:54:20.990Z,101214.85
2023-03-01T22:56:49.754Z,101214.60
2023-03-01T22:59:23.195Z,101216.60
2023-03-01T23:01:53.129Z,101212.63
2023-03-01T23:04:22.983Z,101211.60
2023-03-01T23:06:52.012Z,101218.59
2023-03-01T23:09:22.593Z,101215.89
2023-03-01T23:11:51.719Z,101212.63
2023-03-01T23:14:21.773Z,101210.58
2023-03-01T23:16:51.241Z,101206.16
2023-03-01T23:19:19.607Z,101206.25
2023-03-01T23:21:50.632Z,101210.90
2023-03-01T23:24:21.626Z,101209.48
2023-03-01T23:26:53.648Z,101213.39
2023-03-01T23:29:22.680Z,101213.30
2023-03-01T23:31:51.434Z,101216.23
2023-03-01T23:34:20.008Z,101216.28
2023-03-01T23:36:48.281Z,101216.85
2023-03-01T23:39:16.562Z,101211.52
2023-03-01T23:41:45.348Z,101209.34
2023-03-01T23:44:21.138Z,101211.06
2023-03-01T23:46:50.400Z,101206.49
2023-03-01T23:49:21.946Z,101205.07
2023-03-01T23:51:50.550Z,101204.52
2023-03-01T23:54:21.723Z,101201.05
2023-03-01T23:56:50.170Z,101202.98
2023-03-01T23:59:22.090Z,101203.92
